Time;durP1;ratioP1;P1;durP2;ratioP2;P2;SDS_P1;SDS_P2;PMS_P1;PMS_P2;Temp;Humidity;BMP_temperature;BMP_pressure;BME280_temperature;BME280_humidity;BME280_pressure;Samples;Min_cycle;Max_cycle;Signal;HPM_P1;HPM_P2
2022/01/11 00:00:35;;;;;;;7.50;3.60;;;;;;;-2.81;60.36;101206.15;1773215;79;21036;-65
2022/01/11 00:03:04;;;;;;;8.88;3.47;;;;;;;-2.83;60.85;101213.89;1774755;79;21522;-66
2022/01/11 00:05:35;;;;;;;7.83;3.58;;;;;;;-2.85;60.91;101206.63;1772575;79;21552;-64
2022/01/11 00:08:00;;;;;;;10.20;3.55;;;;;;;-2.90;60.45;101205.83;1771270;79;21081;-64
2022/01/11 00:10:31;;;;;;;8.33;4.03;;;;;;;-2.90;60.50;101216.57;1794307;78;21444;-65
2022/01/11 00:12:56;;;;;;;9.13;4.05;;;;;;;-2.92;60.31;101208.86;1760598;80;20995;-65
2022/01/11 00:15:23;;;;;;;9.08;4.03;;;;;;;-2.92;60.12;101219.61;1760768;80;21046;-64
2022/01/11 00:17:50;;;;;;;8.18;3.92;;;;;;;-2.91;60.24;101229.86;1792768;78;21081;-64
2022/01/11 00:20:19;;;;;;;8.03;3.33;;;;;;;-2.90;60.31;101230.30;1761068;80;21109;-64
2022/01/11 00:25:37;;;;;;;10.30;4.28;;;;;;;-2.96;59.96;101226.48;1786662;78;21127;-64
2022/01/11 00:28:05;;;;;;;7.78;3.42;;;;;;;-3.01;59.62;101226.56;1785368;80;21340;-64
2022/01/11 00:30:37;;;;;;;6.20;2.58;;;;;;;-3.02;59.66;101227.41;1762177;80;21070;-63
2022/01/11 00:33:07;;;;;;;7.45;3.40;;;;;;;-3.03;59.55;101242.43;1766194;80;21538;-64
2022/01/11 00:35:40;;;;;;;6.58;3.37;;;;;;;-3.01;59.45;101234.28;1756623;80;21124;-65
2022/01/11 00:38:10;;;;;;;9.63;3.83;;;;;;;-3.00;59.44;101240.27;1763740;78;21138;-63
2022/01/11 00:40:36;;;;;;;7.90;3.85;;;;;;;-2.97;59.52;101239.41;1755952;80;21046;-64
2022/01/11 00:43:05;;;;;;;8.05;3.50;;;;;;;-2.99;59.75;101236.84;1732730;80;21155;-63
2022/01/11 00:45:31;;;;;;;8.90;3.80;;;;;;;-2.96;60.02;101243.22;1787030;78;21377;-64
2022/01/11 00:47:57;;;;;;;6.87;3.30;;;;;;;-2.94;59.78;101236.36;1759703;80;21136;-63
2022/01/11 00:50:25;;;;;;;8.08;3.87;;;;;;;-2.93;59.80;101247.06;1764316;78;20990;-64
2022/01/11 00:52:52;;;;;;;8.13;4.33;;;;;;;-2.92;59.97;101238.48;1765674;79;21078;-63
2022/01/11 00:55:19;;;;;;;8.15;4.15;;;;;;;-2.89;60.17;101243.60;1774265;79;21046;-63
2022/01/11 00:57:45;;;;;;;10.00;3.87;;;;;;;-2.90;60.21;101246.19;1791968;78;21077;-64
2022/01/11 01:00:13;;;;;;;8.73;3.87;;;;;;;-2.84;60.06;101248.27;1764920;79;22374;-63
2022/01/11 01:02:42;;;;;;;6.80;2.98;;;;;;;-2.85;60.33;101244.42;1762992;80;21134;-62
2022/01/11 01:05:09;;;;;;;7.35;3.83;;;;;;;-2.87;60.37;101254.73;1763580;80;21192;-63
2022/01/11 01:07:36;;;;;;;7.95;3.17;;;;;;;-2.85;60.19;101248.28;1764371;78;21319;-63
2022/01/11 01:10:09;;;;;;;7.87;4.12;;;;;;;-2.83;60.00;101248.66;1762813;80;21168;-62
2022/01/11 01:12:36;;;;;;;6.78;3.17;;;;;;;-2.81;59.73;101248.23;1764901;79;21125;-64
2022/01/11 01:15:04;;;;;;;7.85;3.08;;;;;;;-2.79;59.78;101257.24;1754609;80;21571;-63
2022/01/11 01:17:32;;;;;;;6.35;3.30;;;;;;;-2.77;59.84;101263.63;1754298;80;21108;-65
2022/01/11 01:19:59;;;;;;;6.08;2.72;;;;;;;-2.78;59.22;101259.38;1768328;80;21075;-63
2022/01/11 01:22:25;;;;;;;7.50;3.70;;;;;;;-2.81;57.97;101258.95;1776821;79;21086;-63
2022/01/11 01:24:52;;;;;;;6.37;2.95;;;;;;;-2.86;58.19;101259.03;1775035;79;21230;-63
2022/01/11 01:27:19;;;;;;;7.30;3.20;;;;;;;-2.88;58.83;101261.19;1774901;79;21069;-64
2022/01/11 01:29:45;;;;;;;8.20;3.65;;;;;;;-2.89;58.29;101258.17;1789781;78;21044;-64
2022/01/11 01:32:11;;;;;;;7.58;3.10;;;;;;;-2.94;57.95;101258.25;1760802;79;21148;-63
2022/01/11 01:34:38;;;;;;;6.17;2.85;;;;;;;-3.00;58.04;101260.43;1764692;79;21070;-63
2022/01/11 01:37:07;;;;;;;6.30;3.35;;;;;;;-3.04;58.21;101264.36;1786555;79;21912;-63
2022/01/11 01:39:35;;;;;;;12.15;3.50;;;;;;;-3.07;58.79;101264.39;1743898;79;21045;-63
2022/01/11 01:42:07;;;;;;;8.65;3.50;;;;;;;-3.09;58.19;101264.81;1745495;79;21008;-64
2022/01/11 01:44:34;;;;;;;8.28;3.22;;;;;;;-3.13;58.04;101268.30;1794047;78;21080;-64
2022/01/11 01:47:01;;;;;;;5.85;3.00;;;;;;;-3.14;58.38;101271.73;1739852;80;21088;-63
2022/01/11 01:49:28;;;;;;;6.62;2.72;;;;;;;-3.17;58.27;101268.31;1734919;80;21075;-63
2022/01/11 01:51:55;;;;;;;9.15;3.42;;;;;;;-3.13;58.88;101265.28;1755825;80;21578;-63
2022/01/11 01:54:23;;;;;;;7.72;3.37;;;;;;;-3.07;58.96;101268.25;1755533;80;21140;-63
2022/01/11 01:56:50;;;;;;;6.42;3.10;;;;;;;-3.04;58.91;101269.07;1755547;80;21097;-63
2022/01/11 01:59:17;;;;;;;6.17;3.12;;;;;;;-3.01;58.69;101272.91;1779148;78;21664;-67
2022/01/11 02:01:46;;;;;;;9.20;4.05;;;;;;;-2.97;59.04;101266.00;1755653;80;21092;-63
2022/01/11 02:04:13;;;;;;;8.48;3.33;;;;;;;-2.89;58.76;101269.77;1754935;80;21078;-63
2022/01/11 02:06:39;;;;;;;6.95;3.47;;;;;;;-2.92;58.90;101271.11;1789079;78;21588;-63
2022/01/11 02:09:06;;;;;;;7.55;3.27;;;;;;;-2.92;59.01;101274.98;1757259;80;21071;-63
2022/01/11 02:11:32;;;;;;;7.78;3.95;;;;;;;-2.92;58.96;101275.82;1759601;78;21567;-64
2022/01/11 02:13:59;;;;;;;7.33;3.65;;;;;;;-2.95;59.04;101279.70;1788079;78;21160;-63
2022/01/11 02:16:26;;;;;;;7.65;3.90;;;;;;;-2.97;59.16;101281.90;1787285;78;21049;-64
2022/01/11 02:18:54;;;;;;;8.00;3.75;;;;;;;-3.04;59.25;101284.52;1769653;80;21177;-63
2022/01/11 02:21:21;;;;;;;6.75;3.62;;;;;;;-3.00;59.67;101286.19;1771463;80;21097;-65
2022/01/11 02:23:50;;;;;;;8.48;3.65;;;;;;;-3.02;59.74;101281.48;1767396;79;21574;-64
2022/01/11 02:26:17;;;;;;;9.88;3.83;;;;;;;-2.96;59.73;101281.85;1768282;79;21054;-63
2022/01/11 02:28:44;;;;;;;8.40;3.67;;;;;;;-3.01;59.78;101284.91;1774601;80;20995;-63
2022/01/11 02:31:14;;;;;;;7.80;3.40;;;;;;;-3.01;60.01;101292.62;1771413;79;21062;-64
2022/01/11 02:33:49;;;;;;;7.75;3.80;;;;;;;-3.05;59.79;101285.38;1756913;78;21686;-63
2022/01/11 02:36:35;;;;;;;8.33;3.33;;;;;;;-3.06;59.78;101285.38;1782452;80;21359;-63
2022/01/11 02:39:04;;;;;;;7.15;3.55;;;;;;;-3.04;60.26;101292.24;1733870;80;21149;-64
2022/01/11 02:41:31;;;;;;;10.35;3.65;;;;;;;-3.04;60.41;101282.39;1735172;80;21062;-63
2022/01/11 02:44:00;;;;;;;10.65;3.87;;;;;;;-3.04;60.22;101291.40;1758208;80;21088;-63
2022/01/11 02:46:27;;;;;;;6.87;3.50;;;;;;;-3.09;60.28;101283.70;1759837;80;21722;-65
2022/01/11 02:48:56;;;;;;;7.37;3.72;;;;;;;-3.10;60.26;101286.30;1758243;80;21122;-64
2022/01/11 02:51:24;;;;;;;7.40;3.30;;;;;;;-3.06;60.39;101287.96;1719851;81;21421;-64
2022/01/11 02:53:53;;;;;;;9.13;3.30;;;;;;;-3.08;59.83;101283.27;1763525;78;21123;-64
2022/01/11 02:56:20;;;;;;;8.18;4.22;;;;;;;-3.07;59.92;101284.98;1755469;80;21054;-64
2022/01/11 02:58:46;;;;;;;7.03;3.52;;;;;;;-3.06;59.98;101282.81;1779455;80;21739;-64
2022/01/11 03:01:13;;;;;;;7.08;3.35;;;;;;;-3.08;59.92;101284.55;1757962;80;21044;-64
2022/01/11 03:03:40;;;;;;;7.10;2.98;;;;;;;-3.05;60.14;101285.38;1755689;80;21041;-64
2022/01/11 03:06:07;;;;;;;6.72;2.83;;;;;;;-3.04;60.48;101290.11;1757062;80;21063;-65
2022/01/11 03:08:39;;;;;;;6.78;2.70;;;;;;;-3.06;60.60;101290.53;1722896;80;21029;-65
2022/01/11 03:11:07;;;;;;;6.95;3.67;;;;;;;-3.07;60.60;101297.41;1734685;80;21747;-64
2022/01/11 03:13:35;;;;;;;9.68;3.70;;;;;;;-3.07;60.60;101297.41;1763450;78;21048;-64
2022/01/11 03:16:02;;;;;;;8.28;3.40;;;;;;;-3.03;61.09;101299.52;1762122;78;21069;-64
2022/01/11 03:18:28;;;;;;;9.05;3.95;;;;;;;-3.01;60.95;101301.64;1758289;80;21173;-65
2022/01/11 03:20:55;;;;;;;6.70;2.87;;;;;;;-2.99;61.04;101304.64;1760508;80;21046;-65
2022/01/11 03:23:21;;;;;;;6.33;3.20;;;;;;;-2.96;60.82;101304.19;1760152;80;21026;-64
2022/01/11 03:25:51;;;;;;;8.10;3.50;;;;;;;-2.96;60.31;101307.60;1784612;78;21477;-64
2022/01/11 03:28:19;;;;;;;7.40;3.30;;;;;;;-2.99;60.50;101306.38;1757570;78;21512;-65
2022/01/11 03:30:46;;;;;;;6.15;2.92;;;;;;;-3.02;60.54;101305.95;1734722;81;21690;-63
2022/01/11 03:33:13;;;;;;;7.25;2.60;;;;;;;-3.03;59.62;101309.83;1759777;80;21593;-64
2022/01/11 03:35:41;;;;;;;7.50;3.00;;;;;;;-3.07;59.28;101312.86;1753195;80;21599;-65
2022/01/11 03:38:09;;;;;;;6.20;3.10;;;;;;;-3.09;59.19;101313.73;1733568;81;21137;-65
2022/01/11 03:40:36;;;;;;;6.90;3.15;;;;;;;-3.13;59.40;101321.07;1735741;81;21122;-65
2022/01/11 03:43:04;;;;;;;6.60;2.77;;;;;;;-3.12;59.54;101321.51;1759743;80;21042;-65
2022/01/11 03:45:31;;;;;;;5.92;2.47;;;;;;;-3.12;59.35;101320.22;1764928;80;21102;-65
2022/01/11 03:48:00;;;;;;;7.28;3.22;;;;;;;-3.08;59.31;101325.75;1774115;80;21046;-64
2022/01/11 03:50:26;;;;;;;5.90;2.72;;;;;;;-3.10;59.84;101326.20;1774290;79;21050;-64
2022/01/11 03:53:06;;;;;;;7.97;2.98;;;;;;;-3.13;59.41;101328.80;1744785;80;21080;-64
2022/01/11 03:55:32;;;;;;;6.00;2.90;;;;;;;-3.10;59.53;101329.63;1769994;79;21348;-64
2022/01/11 03:57:51;;;;;;;7.72;3.30;;;;;;;-3.12;59.76;101331.80;1771192;79;21583;-64
2022/01/11 04:00:19;;;;;;;7.15;3.05;;;;;;;-3.13;59.75;101338.66;1774073;79;21051;-64
2022/01/11 04:02:46;;;;;;;6.95;2.67;;;;;;;-3.17;60.01;101335.25;1772156;79;21085;-64
2022/01/11 04:05:14;;;;;;;7.87;3.83;;;;;;;-3.14;60.22;101348.95;1770987;79;21548;-63
2022/01/11 04:07:41;;;;;;;7.28;3.25;;;;;;;-3.13;60.41;101342.52;1770572;79;21042;-65
2022/01/11 04:10:10;;;;;;;7.80;3.00;;;;;;;-3.11;60.51;101339.93;1769870;79;21050;-63
2022/01/11 04:12:38;;;;;;;7.05;3.02;;;;;;;-3.08;60.79;101347.64;1741497;79;21077;-59
2022/01/11 04:15:06;;;;;;;6.25;2.62;;;;;;;-3.05;60.99;101352.77;1745603;80;21568;-61
2022/01/11 04:17:33;;;;;;;6.28;2.47;;;;;;;-3.02;60.90;101354.03;1721087;79;21099;-62
2022/01/11 04:20:00;;;;;;;8.90;3.15;;;;;;;-2.99;60.96;101351.44;1769563;79;21651;-62
2022/01/11 04:22:26;;;;;;;7.30;2.77;;;;;;;-2.98;60.84;101345.40;1742473;79;21057;-62
2022/01/11 04:24:53;;;;;;;7.70;2.77;;;;;;;-2.96;60.90;101350.09;1743672;79;22260;-63
2022/01/11 04:27:20;;;;;;;6.37;3.20;;;;;;;-2.97;60.81;101354.84;1773263;79;21081;-62
2022/01/11 04:29:47;;;;;;;5.53;2.70;;;;;;;-2.94;60.82;101350.96;1773683;79;21946;-63
2022/01/11 04:32:13;;;;;;;5.35;2.83;;;;;;;-2.95;60.79;101357.41;1741950;79;21721;-61
2022/01/11 04:34:40;;;;;;;6.10;2.47;;;;;;;-2.94;61.06;101361.27;1768599;79;21054;-61
2022/01/11 04:37:06;;;;;;;6.85;2.67;;;;;;;-2.94;61.18;101349.67;1743749;79;21526;-61
2022/01/11 04:39:33;;;;;;;8.83;2.67;;;;;;;-2.91;61.22;101359.08;1771588;79;21153;-61
2022/01/11 04:42:02;;;;;;;5.30;2.47;;;;;;;-2.93;61.26;101354.38;1778201;79;21135;-61
2022/01/11 04:44:28;;;;;;;7.03;3.02;;;;;;;-2.91;61.33;101359.92;1773832;79;21526;-62
2022/01/11 04:46:56;;;;;;;6.62;3.27;;;;;;;-2.91;61.26;101362.50;1744151;80;21142;-60
2022/01/11 04:49:22;;;;;;;9.25;3.33;;;;;;;-2.93;61.19;101369.83;1742314;79;21121;-62
2022/01/11 04:51:50;;;;;;;7.58;2.85;;;;;;;-2.93;61.19;101355.67;1773878;79;21052;-61
2022/01/11 04:54:17;;;;;;;9.08;2.92;;;;;;;-2.92;61.56;101377.55;1748112;79;21086;-61
2022/01/11 04:56:43;;;;;;;6.60;3.15;;;;;;;-2.91;61.66;101372.80;1773445;79;21163;-62
2022/01/11 04:59:10;;;;;;;8.03;2.98;;;;;;;-2.87;61.80;101372.37;1773659;79;21342;-61
2022/01/11 05:01:40;;;;;;;6.80;3.08;;;;;;;-2.85;61.68;101375.34;1764809;78;21100;-60
2022/01/11 05:04:06;;;;;;;6.12;2.47;;;;;;;-2.81;61.43;101376.16;1755445;78;21565;-59
2022/01/11 05:06:33;;;;;;;6.40;2.72;;;;;;;-2.83;61.37;101377.90;1792204;78;22040;-62
2022/01/11 05:09:00;;;;;;;7.40;3.05;;;;;;;-2.84;61.54;101383.50;1783282;78;21089;-61
2022/01/11 05:11:26;;;;;;;8.30;3.47;;;;;;;-2.85;61.89;101392.08;1787998;78;21532;-61
2022/01/11 05:13:53;;;;;;;8.43;3.83;;;;;;;-2.87;62.33;101383.52;1762839;79;21070;-62
2022/01/11 05:16:21;;;;;;;7.03;3.17;;;;;;;-2.85;62.56;101393.36;1757482;78;21084;-62
2022/01/11 05:18:47;;;;;;;11.40;3.25;;;;;;;-2.82;62.85;101397.66;1734271;80;22142;-62
2022/01/11 05:21:14;;;;;;;8.90;3.62;;;;;;;-2.80;63.20;101404.48;1751955;78;21092;-61
2022/01/11 05:23:40;;;;;;;9.38;3.20;;;;;;;-2.79;63.54;101401.50;1754263;81;21286;-60
2022/01/11 05:26:07;;;;;;;6.37;3.10;;;;;;;-2.80;63.80;101401.91;1786353;78;21081;-61
2022/01/11 05:28:34;;;;;;;7.92;3.67;;;;;;;-2.79;64.07;101407.94;1734637;80;21096;-61
2022/01/11 05:31:03;;;;;;;7.53;3.65;;;;;;;-2.79;64.46;101420.81;1760501;80;21465;-62
2022/01/11 05:33:31;;;;;;;7.78;3.17;;;;;;;-2.78;64.89;101422.50;1736005;80;21100;-62
2022/01/11 05:35:57;;;;;;;7.67;3.52;;;;;;;-2.75;64.62;101428.92;1757703;80;21133;-61
2022/01/11 05:38:24;;;;;;;6.92;3.05;;;;;;;-2.72;64.34;101431.48;1759006;80;21620;-64
2022/01/11 05:40:51;;;;;;;7.05;2.98;;;;;;;-2.75;64.55;101435.37;1754926;79;21142;-63
2022/01/11 05:43:18;;;;;;;7.20;3.42;;;;;;;-2.72;64.46;101437.05;1768038;79;22295;-63
2022/01/11 05:45:44;;;;;;;7.08;3.08;;;;;;;-2.72;64.29;101440.50;1790035;78;21117;-62
2022/01/11 05:48:11;;;;;;;6.58;2.33;;;;;;;-2.72;63.97;101442.20;1755259;81;21666;-62
2022/01/11 05:50:39;;;;;;;6.83;2.50;;;;;;;-2.77;62.27;101433.25;1782677;79;20999;-62
2022/01/11 05:53:06;;;;;;;5.95;2.85;;;;;;;-2.81;62.87;101444.02;1752689;81;21587;-65
2022/01/11 05:55:33;;;;;;;5.72;2.67;;;;;;;-2.83;62.98;101454.73;1791895;78;22105;-61
2022/01/11 05:58:00;;;;;;;7.15;2.98;;;;;;;-2.81;63.39;101454.72;1764023;79;22506;-63
2022/01/11 06:00:26;;;;;;;6.72;2.55;;;;;;;-2.78;63.42;101453.86;1740492;80;21122;-60
2022/01/11 06:02:54;;;;;;;7.85;2.45;;;;;;;-2.77;63.46;101468.02;1775189;79;21042;-62
2022/01/11 06:05:31;;;;;;;5.58;2.27;;;;;;;-2.78;63.57;101470.16;1773651;80;21098;-61
2022/01/11 06:07:58;;;;;;;6.35;2.40;;;;;;;-2.78;62.90;101462.44;1775217;80;21844;-63
2022/01/11 06:10:25;;;;;;;5.28;2.17;;;;;;;-2.82;62.73;101457.74;1764858;78;21107;-63
2022/01/11 06:12:53;;;;;;;5.72;2.05;;;;;;;-2.77;62.80;101478.73;1764327;79;21603;-63
2022/01/11 06:15:19;;;;;;;4.67;1.70;;;;;;;-2.75;63.01;101478.32;1762043;80;21043;-61
2022/01/11 06:17:46;;;;;;;5.45;2.20;;;;;;;-2.76;62.38;101474.02;1787081;78;21000;-63
2022/01/11 06:20:12;;;;;;;6.92;1.90;;;;;;;-2.77;62.50;101479.61;1765857;79;23287;-63
2022/01/11 06:22:39;;;;;;;4.08;1.30;;;;;;;-2.75;62.78;101483.47;1757524;80;21150;-62
2022/01/11 06:25:07;;;;;;;8.23;2.30;;;;;;;-2.72;63.08;101483.42;1774392;80;21397;-61
2022/01/11 06:27:34;;;;;;;4.72;1.50;;;;;;;-2.73;62.33;101479.16;1774880;79;21552;-63
2022/01/11 06:30:01;;;;;;;4.87;1.75;;;;;;;-2.69;62.48;101492.02;1774593;79;21140;-61
2022/01/11 06:32:31;;;;;;;6.10;2.05;;;;;;;-2.67;62.79;101492.00;1779796;79;21537;-62
2022/01/11 06:34:59;;;;;;;5.17;2.00;;;;;;;-2.66;62.44;101493.69;1774880;79;21513;-63
2022/01/11 06:37:25;;;;;;;5.15;2.00;;;;;;;-2.62;62.70;101492.82;1775916;79;21055;-64
2022/01/11 06:39:52;;;;;;;6.17;2.08;;;;;;;-2.59;62.55;101493.22;1777147;79;21056;-63
2022/01/11 06:42:19;;;;;;;7.30;2.55;;;;;;;-2.59;62.14;101496.64;1773873;79;21073;-64
2022/01/11 06:44:45;;;;;;;6.85;2.55;;;;;;;-2.56;62.53;101499.64;1751401;79;21781;-62
2022/01/11 06:47:12;;;;;;;6.60;2.33;;;;;;;-2.57;62.00;101498.80;1772684;79;21074;-63
2022/01/11 06:49:40;;;;;;;7.72;2.22;;;;;;;-2.57;62.55;101505.23;1789328;78;21069;-63
2022/01/11 06:52:06;;;;;;;4.85;1.90;;;;;;;-2.60;62.90;101507.83;1763639;80;21065;-64
2022/01/11 06:54:35;;;;;;;6.37;2.40;;;;;;;-2.56;63.14;101506.92;1789279;80;21086;-67
2022/01/11 06:57:01;;;;;;;6.42;3.02;;;;;;;-2.49;63.01;101515.05;1762945;80;21111;-63
2022/01/11 06:59:27;;;;;;;7.08;2.72;;;;;;;-2.44;62.80;101514.59;1773255;79;21360;-64
2022/01/11 07:01:56;;;;;;;6.17;2.60;;;;;;;-2.42;62.80;101512.00;1744949;79;21111;-64
2022/01/11 07:04:24;;;;;;;7.12;3.15;;;;;;;-2.37;62.81;101515.80;1769411;79;21050;-59
2022/01/11 07:06:53;;;;;;;5.92;2.42;;;;;;;-2.38;62.68;101517.98;1771233;79;21113;-62
2022/01/11 07:09:20;;;;;;;5.78;2.75;;;;;;;-2.37;62.75;101521.84;1777669;79;21144;-63
2022/01/11 07:11:46;;;;;;;6.20;2.60;;;;;;;-2.32;62.80;101521.77;1752983;79;21360;-64
2022/01/11 07:14:13;;;;;;;6.30;2.75;;;;;;;-2.33;62.71;101518.34;1772274;79;21073;-63
2022/01/11 07:16:43;;;;;;;6.05;2.58;;;;;;;-2.34;62.83;101523.07;1785118;79;21089;-63
2022/01/11 07:19:10;;;;;;;6.80;2.27;;;;;;;-2.31;63.03;101528.20;1762506;79;21184;-63
2022/01/11 07:21:38;;;;;;;7.47;3.22;;;;;;;-2.30;63.29;101522.20;1764836;79;21863;-63
2022/01/11 07:24:06;;;;;;;5.78;2.60;;;;;;;-2.27;63.24;101523.88;1769390;79;21097;-63
2022/01/11 07:26:34;;;;;;;6.37;2.62;;;;;;;-2.19;62.79;101522.53;1770031;79;21029;-63
2022/01/11 07:29:00;;;;;;;5.75;2.47;;;;;;;-2.21;62.59;101518.67;1765200;79;21101;-64
2022/01/11 07:31:28;;;;;;;5.50;2.67;;;;;;;-2.22;62.80;101518.69;1788957;78;21092;-63
2022/01/11 07:33:55;;;;;;;5.20;2.08;;;;;;;-2.22;62.67;101515.66;1763112;80;21106;-63
2022/01/11 07:36:21;;;;;;;5.65;2.40;;;;;;;-2.21;62.25;101516.55;1788222;78;21045;-63
2022/01/11 07:38:53;;;;;;;6.40;2.15;;;;;;;-2.24;62.11;101519.98;1737054;80;21062;-63
2022/01/11 07:41:21;;;;;;;6.90;2.55;;;;;;;-2.25;62.15;101519.59;1738243;80;21533;-63
2022/01/11 07:44:05;;;;;;;5.37;1.57;;;;;;;-2.27;62.17;101531.61;1771029;78;21069;-63
2022/01/11 07:46:35;;;;;;;4.87;1.75;;;;;;;-2.32;60.85;101531.67;1770217;79;21130;-64
2022/01/11 07:49:05;;;;;;;3.95;1.77;;;;;;;-2.33;60.95;101531.69;1772262;79;21504;-66
2022/01/11 07:51:33;;;;;;;5.10;2.00;;;;;;;-2.31;61.39;101528.20;1781314;78;21020;-63
2022/01/11 07:54:00;;;;;;;4.97;2.05;;;;;;;-2.26;61.66;101535.91;1780427;78;21053;-61
2022/01/11 07:56:26;;;;;;;5.58;2.42;;;;;;;-2.21;61.79;101528.99;1776785;79;21114;-61
2022/01/11 07:58:56;;;;;;;6.22;2.55;;;;;;;-2.17;61.64;101533.68;1767595;79;21081;-65
2022/01/11 08:01:24;;;;;;;5.33;1.95;;;;;;;-2.17;61.78;101537.55;1768754;79;21090;-62
2022/01/11 08:03:51;;;;;;;4.97;2.15;;;;;;;-2.20;61.35;101541.03;1765071;79;21529;-60
2022/01/11 08:06:19;;;;;;;4.95;2.22;;;;;;;-2.18;61.38;101536.70;1744305;79;21109;-63
2022/01/11 08:08:48;;;;;;;5.75;2.12;;;;;;;-2.18;61.03;101537.15;1768141;79;21054;-62
2022/01/11 08:11:14;;;;;;;4.72;1.90;;;;;;;-2.22;60.71;101536.73;1743537;79;21147;-62
2022/01/11 08:13:42;;;;;;;5.67;2.15;;;;;;;-2.23;60.76;101537.18;1770863;79;21011;-63
2022/01/11 08:16:09;;;;;;;5.95;2.77;;;;;;;-2.22;61.11;101533.72;1769536;79;22138;-63
2022/01/11 08:18:36;;;;;;;7.17;2.47;;;;;;;-2.23;61.13;101529.89;1759069;79;21074;-62
2022/01/11 08:21:03;;;;;;;6.20;2.50;;;;;;;-2.23;61.61;101535.05;1764514;79;21065;-64
2022/01/11 08:23:30;;;;;;;8.10;3.42;;;;;;;-2.23;62.05;101541.49;1788795;78;21144;-63
2022/01/11 08:26:00;;;;;;;6.12;2.67;;;;;;;-2.22;62.21;101541.89;1752973;79;21090;-63
2022/01/11 08:28:27;;;;;;;6.00;3.12;;;;;;;-2.20;62.26;101548.77;1756383;80;21033;-63
2022/01/11 08:30:57;;;;;;;5.78;2.42;;;;;;;-2.21;62.45;101541.88;1789459;78;21061;-63
2022/01/11 08:33:24;;;;;;;6.45;2.15;;;;;;;-2.18;62.17;101548.31;1762594;78;21069;-62
2022/01/11 08:35:52;;;;;;;7.22;2.72;;;;;;;-2.18;61.55;101547.02;1757434;79;21698;-63
2022/01/11 08:38:19;;;;;;;5.53;2.22;;;;;;;-2.22;61.56;101550.48;1732955;79;21147;-63
2022/01/11 08:40:48;;;;;;;6.58;2.72;;;;;;;-2.23;61.58;101545.36;1736210;79;21076;-63
2022/01/11 08:43:14;;;;;;;4.92;2.10;;;;;;;-2.23;61.70;101550.52;1762996;79;21078;-62
2022/01/11 08:45:41;;;;;;;6.00;2.40;;;;;;;-2.25;61.21;101550.53;1763919;80;21043;-64
2022/01/11 08:48:09;;;;;;;7.17;2.20;;;;;;;-2.24;61.27;101543.19;1767821;80;21386;-60
2022/01/11 08:50:37;;;;;;;5.67;2.20;;;;;;;-2.28;61.37;101546.23;1786449;78;21057;-61
2022/01/11 08:53:03;;;;;;;5.22;2.00;;;;;;;-2.28;61.38;101550.55;1758608;79;21556;-62
2022/01/11 08:55:31;;;;;;;6.40;2.25;;;;;;;-2.26;61.41;101546.23;1766252;80;21083;-63
2022/01/11 08:57:57;;;;;;;5.67;2.10;;;;;;;-2.25;61.36;101547.95;1763641;80;21066;-61
2022/01/11 09:00:26;;;;;;;5.60;2.37;;;;;;;-2.23;61.45;101553.94;1776102;79;21087;-62
2022/01/11 09:02:54;;;;;;;8.73;2.65;;;;;;;-2.20;61.49;101554.33;1777433;79;21081;-63
2022/01/11 09:07:13;;;;;;;6.92;2.37;;;;;;;-2.14;61.51;101541.40;1797614;77;22723;-63
2022/01/11 09:09:40;;;;;;;5.53;1.70;;;;;;;-2.15;61.87;101551.28;1768973;79;21013;-64
2022/01/11 09:12:13;;;;;;;6.78;2.12;;;;;;;-2.13;61.92;101551.70;1772608;78;21083;-63
2022/01/11 09:14:39;;;;;;;6.42;2.37;;;;;;;-2.15;61.63;101552.57;1772363;79;20958;-64
2022/01/11 09:17:06;;;;;;;10.90;2.77;;;;;;;-2.16;61.74;101550.88;1775879;79;21077;-63
2022/01/11 09:19:33;;;;;;;6.05;2.17;;;;;;;-2.16;62.05;101537.54;1774564;79;21501;-62
2022/01/11 09:22:00;;;;;;;6.10;2.42;;;;;;;-2.12;61.79;101540.94;1718165;80;21114;-62
2022/01/11 09:24:29;;;;;;;6.65;3.10;;;;;;;-2.14;61.86;101538.81;1736088;80;21200;-60
2022/01/11 09:26:58;;;;;;;6.60;2.85;;;;;;;-2.14;61.83;101529.34;1726692;82;21652;-61
2022/01/11 09:29:26;;;;;;;6.15;2.85;;;;;;;-2.11;61.86;101528.48;1731239;82;21054;-62
2022/01/11 09:31:56;;;;;;;5.17;2.25;;;;;;;-2.06;61.74;101531.87;1712462;82;21387;-61
2022/01/11 09:34:23;;;;;;;5.97;2.75;;;;;;;-1.97;61.62;101523.19;1738719;80;21086;-61
2022/01/11 09:36:49;;;;;;;8.95;3.70;;;;;;;-1.91;61.81;101527.84;1706967;81;21960;-62
2022/01/11 09:39:16;;;;;;;7.45;3.65;;;;;;;-1.85;61.52;101511.44;1723308;82;21545;-62
2022/01/11 09:41:43;;;;;;;6.35;3.40;;;;;;;-1.78;61.65;101518.68;1721902;82;22198;-62
2022/01/11 09:44:11;;;;;;;6.92;3.83;;;;;;;-1.70;60.82;101508.72;1700007;82;21097;-62
2022/01/11 09:46:38;;;;;;;8.15;3.75;;;;;;;-1.67;60.56;101514.27;1740448;80;21301;-64
2022/01/11 09:49:05;;;;;;;7.20;3.30;;;;;;;-1.60;60.21;101516.34;1710722;82;21087;-60
2022/01/11 09:51:34;;;;;;;9.15;3.58;;;;;;;-1.58;60.04;101518.47;1709649;81;21184;-60
2022/01/11 09:54:01;;;;;;;7.40;2.95;;;;;;;-1.54;60.18;101525.32;1712584;81;22327;-61
2022/01/11 09:56:28;;;;;;;7.25;2.95;;;;;;;-1.50;59.44;101516.24;1712146;81;21078;-60
2022/01/11 09:58:55;;;;;;;8.00;3.05;;;;;;;-1.52;59.32;101515.37;1713551;82;21157;-60
2022/01/11 10:01:41;;;;;;;5.90;3.00;;;;;;;-1.51;59.12;101517.55;1716850;82;22414;-60
2022/01/11 10:04:11;;;;;;;7.17;2.80;;;;;;;-1.47;59.75;101519.66;1714577;82;21145;-60
2022/01/11 10:06:56;;;;;;;7.33;3.47;;;;;;;-1.46;59.55;101522.22;1701070;82;21163;-60
2022/01/11 10:09:25;;;;;;;6.35;3.00;;;;;;;-1.42;59.69;101518.71;1738405;79;21050;-60
2022/01/11 10:11:54;;;;;;;6.00;2.52;;;;;;;-1.38;59.63;101519.11;1759289;79;22418;-59
2022/01/11 10:14:36;;;;;;;6.58;3.15;;;;;;;-1.38;59.74;101519.11;1738872;80;21985;-60
2022/01/11 10:17:23;;;;;;;9.68;3.42;;;;;;;-1.44;59.43;101514.01;1759908;79;21086;-59
2022/01/11 10:20:02;;;;;;;7.83;2.75;;;;;;;-1.45;59.75;101523.91;1756383;79;21075;-60
2022/01/11 10:22:32;;;;;;;5.90;2.45;;;;;;;-1.48;59.75;101512.31;1763221;79;21094;-59
2022/01/11 10:25:00;;;;;;;5.78;2.35;;;;;;;-1.42;60.08;101513.99;1760450;79;21408;-60
2022/01/11 10:27:34;;;;;;;5.25;2.25;;;;;;;-1.39;59.68;101513.52;1753359;79;21196;-59
2022/01/11 10:30:16;;;;;;;6.45;2.70;;;;;;;-1.38;59.93;101512.66;1762396;79;21071;-60
2022/01/11 10:32:47;;;;;;;6.85;2.92;;;;;;;-1.32;60.08;101512.55;1758774;79;21577;-60
2022/01/11 10:35:23;;;;;;;6.60;2.60;;;;;;;-1.27;60.05;101514.25;1755647;79;21035;-59
2022/01/11 10:37:54;;;;;;;4.62;2.05;;;;;;;-1.26;60.02;101506.48;1756098;79;20993;-60
2022/01/11 10:40:24;;;;;;;5.67;2.60;;;;;;;-1.28;59.25;101511.23;1753595;80;21126;-59
2022/01/11 10:43:00;;;;;;;6.87;2.70;;;;;;;-1.30;59.39;101509.95;1756799;79;21114;-59
2022/01/11 10:45:30;;;;;;;6.03;2.60;;;;;;;-1.31;59.34;101512.98;1736040;80;21188;-59
2022/01/11 10:47:59;;;;;;;6.37;2.60;;;;;;;-1.31;59.70;101517.30;1757806;79;21055;-60
2022/01/11 10:50:37;;;;;;;6.22;2.40;;;;;;;-1.27;59.11;101512.50;1736710;80;21040;-60
2022/01/11 10:53:06;;;;;;;6.10;2.80;;;;;;;-1.33;59.01;101519.91;1759678;79;21109;-62
2022/01/11 10:55:34;;;;;;;6.30;2.20;;;;;;;-1.32;59.51;101516.43;1710289;80;21536;-61
2022/01/11 10:58:04;;;;;;;7.62;2.75;;;;;;;-1.34;59.82;101514.31;1756230;79;21086;-59
2022/01/11 11:00:38;;;;;;;5.37;2.58;;;;;;;-1.37;59.88;101514.34;1763606;79;22255;-60
2022/01/11 11:03:13;;;;;;;4.70;2.15;;;;;;;-1.38;60.04;101515.65;1732584;79;21098;-60
2022/01/11 11:05:48;;;;;;;5.53;2.58;;;;;;;-1.36;60.52;101519.94;1761074;79;21118;-62
2022/01/11 11:08:30;;;;;;;6.30;2.33;;;;;;;-1.39;60.74;101517.39;1767534;79;21071;-61
2022/01/11 11:11:06;;;;;;;5.25;1.92;;;;;;;-1.41;61.00;101517.84;1767943;79;21040;-61
2022/01/11 11:13:36;;;;;;;4.37;1.65;;;;;;;-1.45;61.01;101516.16;1767596;79;21152;-61
2022/01/11 11:16:20;;;;;;;4.28;2.08;;;;;;;-1.52;61.59;101516.67;1771298;79;21023;-63
2022/01/11 11:18:55;;;;;;;5.80;2.62;;;;;;;-1.55;61.76;101514.56;1769246;79;22265;-62
2022/01/11 11:21:36;;;;;;;6.35;2.50;;;;;;;-1.55;61.76;101515.86;1767032;79;21535;-60
2022/01/11 11:24:12;;;;;;;6.22;2.40;;;;;;;-1.56;62.01;101516.30;1766767;79;21062;-64
2022/01/11 11:26:46;;;;;;;5.92;2.70;;;;;;;-1.60;61.55;101509.89;1761588;79;21029;-60
2022/01/11 11:29:13;;;;;;;7.85;2.92;;;;;;;-1.57;61.80;101517.61;1743614;79;21105;-58
2022/01/11 11:31:39;;;;;;;8.35;2.83;;;;;;;-1.53;62.04;101516.27;1770092;79;21137;-58
2022/01/11 11:34:08;;;;;;;5.37;2.27;;;;;;;-1.55;61.70;101511.98;1767395;79;21062;-59